Time;durP1;ratioP1;P1;durP2;ratioP2;P2;SDS_P1;SDS_P2;PMS_P1;PMS_P2;Temp;Humidity;BMP_temperature;BMP_pressure;BME280_temperature;BME280_humidity;BME280_pressure;Samples;Min_cycle;Max_cycle;Signal;HPM_P1;HPM_P2
2023/05/21 00:00:00;;;;;;;0.45;0.45;;;;;;;14.00;95.88;96513.50;29395;208;63004;-54
2023/05/21 00:00:31;;;;;;;0.40;0.40;;;;;;;14.00;96.36;96510.75;29394;222;64013;-53
2023/05/21 00:01:06;;;;;;;0.50;0.50;;;;;;;13.99;96.48;96509.16;29395;202;63004;-53
2023/05/21 00:01:41;;;;;;;0.40;0.40;;;;;;;13.97;96.64;96516.88;29395;306;63009;-58
2023/05/21 00:02:14;;;;;;;0.65;0.65;;;;;;;13.97;96.37;96511.41;29395;219;63009;-54
2023/05/21 00:02:45;;;;;;;0.82;0.82;;;;;;;13.95;96.41;96508.19;29395;219;63009;-59
2023/05/21 00:03:17;;;;;;;0.40;0.40;;;;;;;13.95;95.98;96507.41;29395;213;63005;-54
2023/05/21 00:03:48;;;;;;;0.50;0.50;;;;;;;13.95;95.52;96502.75;29395;220;63009;-53
2023/05/21 00:04:20;;;;;;;0.40;0.40;;;;;;;13.94;95.24;96506.59;29395;210;63005;-53
2023/05/21 00:04:51;;;;;;;0.40;0.40;;;;;;;13.95;95.50;96513.66;29395;232;63009;-53
2023/05/21 00:05:25;;;;;;;0.50;0.50;;;;;;;13.92;95.13;96506.12;29395;265;63008;-53
2023/05/21 00:05:57;;;;;;;0.40;0.40;;;;;;;13.94;95.02;96509.31;29394;225;64013;-53
2023/05/21 00:06:28;;;;;;;0.50;0.50;;;;;;;13.95;94.80;96513.66;29395;237;63004;-53
2023/05/21 00:06:59;;;;;;;0.50;0.50;;;;;;;13.95;96.12;96508.19;29395;197;63009;-53
2023/05/21 00:07:32;;;;;;;0.40;0.40;;;;;;;13.95;96.12;96507.41;29395;213;63004;-53
2023/05/21 00:08:04;;;;;;;0.40;0.40;;;;;;;13.94;96.55;96508.53;29395;243;63015;-53
2023/05/21 00:08:35;;;;;;;0.50;0.50;;;;;;;13.94;96.38;96505.78;29395;198;63004;-53
2023/05/21 00:09:06;;;;;;;0.50;0.50;;;;;;;13.93;97.19;96510.44;29395;219;63009;-53
2023/05/21 00:09:39;;;;;;;0.50;0.50;;;;;;;13.87;96.50;96503.56;29395;284;63005;-53
2023/05/21 00:10:12;;;;;;;0.40;0.40;;;;;;;13.91;95.72;96512.69;29394;197;64009;-53
2023/05/21 00:10:43;;;;;;;0.47;0.47;;;;;;;13.91;95.82;96512.69;29395;231;63005;-53
2023/05/21 00:11:14;;;;;;;0.40;0.40;;;;;;;13.90;96.13;96502.09;29394;204;64013;-53
2023/05/21 00:11:45;;;;;;;0.50;0.50;;;;;;;13.90;96.58;96505.63;29395;217;63005;-53
2023/05/21 00:12:17;;;;;;;0.50;0.50;;;;;;;13.89;97.19;96503.22;29395;222;63013;-53
2023/05/21 00:12:48;;;;;;;0.40;0.40;;;;;;;13.88;96.98;96502.44;29395;222;63005;-53
2023/05/21 00:13:19;;;;;;;0.50;0.50;;;;;;;13.87;96.75;96506.28;29395;203;63009;-54
2023/05/21 00:13:50;;;;;;;0.40;0.40;;;;;;;13.87;96.84;96503.56;29395;209;63004;-52
2023/05/21 00:14:22;;;;;;;0.50;0.50;;;;;;;13.85;96.97;96503.09;29395;252;63009;-58
2023/05/21 00:14:53;;;;;;;0.43;0.43;;;;;;;13.85;96.71;96497.66;29395;263;63004;-53
2023/05/21 00:15:24;;;;;;;0.50;0.50;;;;;;;13.83;97.17;96505.34;29395;343;63009;-53
2023/05/21 00:15:56;;;;;;;0.40;0.40;;;;;;;13.82;97.96;96506.47;29395;334;63004;-53
2023/05/21 00:16:27;;;;;;;0.40;0.40;;;;;;;13.79;98.50;96504.38;29394;218;64014;-53
2023/05/21 00:16:58;;;;;;;0.50;0.50;;;;;;;13.78;98.54;96501.97;29395;269;63011;-53
2023/05/21 00:17:30;;;;;;;0.50;0.50;;;;;;;13.76;98.53;96505.03;29395;228;63009;-59
2023/05/21 00:18:01;;;;;;;0.40;0.40;;;;;;;13.76;98.36;96505.03;29395;206;63005;-53
2023/05/21 00:18:33;;;;;;;0.50;0.50;;;;;;;13.76;98.65;96496.84;29395;207;63009;-59
2023/05/21 00:19:05;;;;;;;0.40;0.40;;;;;;;13.74;97.51;96501.81;29395;254;63005;-58
2023/05/21 00:19:38;;;;;;;0.40;0.40;;;;;;;13.73;97.56;96497.50;29395;297;63009;-59
2023/05/21 00:20:11;;;;;;;0.40;0.40;;;;;;;13.74;97.86;96501.81;29395;222;63005;-59
2023/05/21 00:20:42;;;;;;;0.43;0.43;;;;;;;13.74;97.98;96501.81;29395;199;63009;-53
2023/05/21 00:21:21;;;;;;;0.40;0.40;;;;;;;13.73;99.15;96501.03;29395;257;63004;-54
2023/05/21 00:21:53;;;;;;;0.40;0.40;;;;;;;13.70;99.40;96503.59;29394;241;64013;-53
2023/05/21 00:22:25;;;;;;;0.40;0.40;;;;;;;13.70;98.65;96506.31;29395;244;63004;-53
2023/05/21 00:22:58;;;;;;;0.50;0.50;;;;;;;13.69;98.87;96499.25;29395;214;63009;-53
2023/05/21 00:23:31;;;;;;;0.50;0.50;;;;;;;13.69;98.95;96505.50;29395;205;63004;-53
2023/05/21 00:24:03;;;;;;;0.50;0.50;;;;;;;13.69;99.32;96499.25;29395;203;63009;-58
2023/05/21 00:24:34;;;;;;;0.40;0.40;;;;;;;13.68;99.11;96497.66;29395;221;63005;-53
2023/05/21 00:25:06;;;;;;;0.50;0.50;;;;;;;13.67;99.05;96493.31;29395;223;63009;-54
2023/05/21 00:25:38;;;;;;;0.50;0.50;;;;;;;13.67;99.65;96493.31;29395;209;63005;-53
2023/05/21 00:26:09;;;;;;;0.50;0.50;;;;;;;13.67;99.85;96485.16;29395;213;63009;-54
2023/05/21 00:26:41;;;;;;;0.50;0.50;;;;;;;13.66;100.00;96491.72;29395;258;63010;-53
2023/05/21 00:27:12;;;;;;;0.50;0.50;;;;;;;13.65;100.00;96492.84;29394;269;64013;-53
2023/05/21 00:27:44;;;;;;;0.40;0.40;;;;;;;13.65;99.43;96492.84;29395;216;63005;-53
2023/05/21 00:28:15;;;;;;;0.40;0.40;;;;;;;13.65;98.80;96495.56;29395;247;63014;-53
2023/05/21 00:28:46;;;;;;;0.50;0.50;;;;;;;13.66;98.33;96491.72;29395;298;63004;-54
2023/05/21 00:29:17;;;;;;;0.50;0.50;;;;;;;13.67;98.59;96490.59;29395;216;63009;-53
2023/05/21 00:29:49;;;;;;;0.40;0.40;;;;;;;13.67;98.79;96496.06;29394;222;64009;-53
2023/05/21 00:30:21;;;;;;;0.50;0.50;;;;;;;13.67;98.65;96490.59;29395;202;63009;-53
2023/05/21 00:30:52;;;;;;;0.43;0.43;;;;;;;13.68;98.41;96492.19;29395;276;63004;-53
2023/05/21 00:31:23;;;;;;;0.45;0.45;;;;;;;13.67;98.71;96490.59;29395;249;63009;-53
2023/05/21 00:31:55;;;;;;;0.40;0.40;;;;;;;13.65;99.35;96487.37;29395;258;63005;-53
2023/05/21 00:32:26;;;;;;;0.40;0.40;;;;;;;13.63;100.00;96489.63;29395;234;63009;-53
2023/05/21 00:33:01;;;;;;;0.50;0.50;;;;;;;13.62;99.90;96488.84;29395;290;63007;-53
2023/05/21 00:33:32;;;;;;;0.60;0.60;;;;;;;13.62;99.72;96490.75;29395;244;63009;-53
2023/05/21 00:34:04;;;;;;;0.50;0.50;;;;;;;13.63;99.20;96489.63;29395;249;63005;-53
2023/05/21 00:34:36;;;;;;;0.40;0.40;;;;;;;13.63;99.38;96489.63;29395;219;63009;-53
2023/05/21 00:35:08;;;;;;;0.40;0.40;;;;;;;13.62;99.98;96482.59;29394;245;64009;-58
2023/05/21 00:35:41;;;;;;;0.40;0.40;;;;;;;13.61;100.00;96481.78;29395;210;63004;-54
2023/05/21 00:36:13;;;;;;;0.40;0.40;;;;;;;13.61;99.88;96480.97;29395;196;63008;-58
2023/05/21 00:36:45;;;;;;;0.50;0.50;;;;;;;13.62;100.00;96482.59;29395;221;63009;-53
2023/05/21 00:37:16;;;;;;;0.50;0.50;;;;;;;13.61;100.00;96479.06;29395;271;63004;-53
2023/05/21 00:37:47;;;;;;;0.40;0.40;;;;;;;13.60;100.00;96480.19;29395;252;63009;-53
2023/05/21 00:38:18;;;;;;;0.50;0.50;;;;;;;13.61;99.21;96475.53;29395;204;63004;-54
2023/05/21 00:38:51;;;;;;;0.50;0.50;;;;;;;13.61;99.38;96475.53;29395;211;63008;-60
2023/05/21 00:39:23;;;;;;;0.50;0.50;;;;;;;13.62;100.00;96482.59;29395;212;63005;-53
2023/05/21 00:39:54;;;;;;;0.50;0.50;;;;;;;13.60;100.00;96473.91;29395;296;63024;-53
2023/05/21 00:40:26;;;;;;;0.40;0.40;;;;;;;13.56;100.00;96476.47;29394;197;64009;-53
2023/05/21 00:41:02;;;;;;;0.40;0.40;;;;;;;13.57;100.00;96480.00;29395;202;63009;-53
2023/05/21 00:41:34;;;;;;;0.40;0.40;;;;;;;13.57;100.00;96474.56;29395;228;63005;-53
2023/05/21 00:42:06;;;;;;;0.40;0.40;;;;;;;13.57;99.33;96471.84;29395;222;63009;-54
2023/05/21 00:42:38;;;;;;;0.50;0.50;;;;;;;13.59;99.63;96475.03;29395;209;63004;-53
2023/05/21 00:43:09;;;;;;;0.40;0.40;;;;;;;13.59;100.00;96475.03;29395;202;63009;-53
2023/05/21 00:43:40;;;;;;;0.40;0.40;;;;;;;13.58;100.00;96474.25;29395;245;63004;-53
2023/05/21 00:44:12;;;;;;;0.40;0.40;;;;;;;13.57;100.00;96474.56;29395;331;63009;-52
2023/05/21 00:44:45;;;;;;;0.40;0.40;;;;;;;13.56;100.00;96478.41;29395;196;63004;-53
2023/05/21 00:45:18;;;;;;;0.40;0.40;;;;;;;13.55;100.00;96476.81;29395;202;63008;-53
2023/05/21 00:45:49;;;;;;;0.40;0.40;;;;;;;13.55;100.00;96474.09;29394;220;63999;-53
2023/05/21 00:46:22;;;;;;;0.40;0.40;;;;;;;13.54;100.00;96470.56;29395;210;63017;-53
2023/05/21 00:46:53;;;;;;;0.40;0.40;;;;;;;13.54;100.00;96478.72;29395;200;63005;-52
2023/05/21 00:47:28;;;;;;;0.50;0.50;;;;;;;13.55;100.00;96476.81;29395;213;63015;-53
2023/05/21 00:48:01;;;;;;;0.40;0.40;;;;;;;13.54;100.00;96469.75;29395;219;63005;-53
2023/05/21 00:48:33;;;;;;;0.40;0.40;;;;;;;13.54;100.00;96464.31;29395;224;63009;-53
2023/05/21 00:49:06;;;;;;;0.40;0.40;;;;;;;13.54;100.00;96472.47;29395;226;63005;-53
2023/05/21 00:49:40;;;;;;;0.50;0.50;;;;;;;13.54;100.00;96475.19;29395;223;63009;-53
2023/05/21 00:50:13;;;;;;;0.40;0.40;;;;;;;13.54;100.00;96475.19;29395;227;63004;-54
2023/05/21 00:50:49;;;;;;;0.40;0.40;;;;;;;13.54;99.94;96469.75;29395;237;63009;-53
2023/05/21 00:51:20;;;;;;;0.40;0.40;;;;;;;13.55;99.72;96465.91;29394;221;64009;-54
2023/05/21 00:51:53;;;;;;;0.50;0.50;;;;;;;13.56;99.63;96467.50;29395;202;63009;-53
2023/05/21 00:52:26;;;;;;;0.40;0.40;;;;;;;13.56;99.29;96467.50;29395;287;63004;-53
2023/05/21 00:52:58;;;;;;;0.40;0.40;;;;;;;13.57;98.96;96469.12;29395;317;63008;-53
2023/05/21 00:53:30;;;;;;;2.35;2.15;;;;;;;13.57;98.71;96475.38;29395;208;63005;-53
2023/05/21 00:54:02;;;;;;;0.40;0.40;;;;;;;13.57;98.57;96469.91;29395;281;63009;-53
2023/05/21 00:54:34;;;;;;;0.40;0.40;;;;;;;13.58;98.51;96466.06;29395;235;63005;-53
2023/05/21 00:55:07;;;;;;;0.40;0.40;;;;;;;13.59;98.81;96466.88;29395;213;63009;-53
2023/05/21 00:55:39;;;;;;;0.50;0.50;;;;;;;13.58;99.93;96474.25;29395;197;63005;-53
2023/05/21 00:56:11;;;;;;;0.50;0.50;;;;;;;13.57;100.00;96469.12;29395;218;63009;-53
2023/05/21 00:56:45;;;;;;;0.45;0.45;;;;;;;13.56;100.00;96470.22;29394;280;64009;-53
2023/05/21 00:57:21;;;;;;;0.50;0.50;;;;;;;13.54;100.00;96469.75;29395;202;63009;-53
2023/05/21 00:57:52;;;;;;;0.43;0.43;;;;;;;13.52;100.00;96477.44;29395;238;63004;-53
2023/05/21 00:58:24;;;;;;;0.50;0.50;;;;;;;13.50;100.00;96472.34;29395;206;63009;-52
2023/05/21 00:58:57;;;;;;;0.50;0.50;;;;;;;13.50;100.00;96468.81;29395;228;63004;-54
2023/05/21 00:59:28;;;;;;;0.43;0.43;;;;;;;13.48;100.00;96468.34;29395;213;63009;-59
2023/05/21 00:59:59;;;;;;;0.40;0.40;;;;;;;13.48;100.00;96471.06;29395;302;63004;-52
2023/05/21 01:00:36;;;;;;;0.40;0.40;;;;;;;13.46;100.00;96463.22;29395;202;63008;-53
2023/05/21 01:01:12;;;;;;;0.40;0.40;;;;;;;13.47;100.00;96466.72;29395;334;63005;-52
2023/05/21 01:01:52;;;;;;;0.50;0.50;;;;;;;13.48;100.00;96465.63;29394;208;64014;-52
2023/05/21 01:02:24;;;;;;;0.50;0.50;;;;;;;13.44;100.00;96464.66;29417;273;63005;-53
2023/05/21 01:02:56;;;;;;;0.50;0.50;;;;;;;13.44;100.00;96467.38;29395;227;63009;-52
2023/05/21 01:03:28;;;;;;;0.45;0.45;;;;;;;13.43;100.00;96463.03;29395;206;63005;-52
2023/05/21 01:04:01;;;;;;;0.40;0.40;;;;;;;13.43;100.00;96471.22;29395;253;63009;-53
2023/05/21 01:04:32;;;;;;;0.50;0.50;;;;;;;13.43;100.00;96474.75;29395;204;63005;-53
2023/05/21 01:05:05;;;;;;;0.40;0.40;;;;;;;13.45;100.00;96466.25;29395;222;63009;-52
2023/05/21 01:05:37;;;;;;;0.40;0.40;;;;;;;13.45;100.00;96466.25;29395;203;63004;-52
2023/05/21 01:06:09;;;;;;;0.40;0.40;;;;;;;13.45;100.00;96460.81;29394;243;64009;-54
2023/05/21 01:06:41;;;;;;;0.40;0.40;;;;;;;13.45;100.00;96466.25;29394;202;64009;-53
2023/05/21 01:07:13;;;;;;;0.40;0.40;;;;;;;13.45;100.00;96471.69;29395;260;63009;-58
2023/05/21 01:07:45;;;;;;;0.50;0.50;;;;;;;13.43;100.00;96463.84;29394;254;64008;-52
2023/05/21 01:08:16;;;;;;;0.43;0.43;;;;;;;13.41;100.00;96466.88;29395;212;63016;-53
2023/05/21 01:08:49;;;;;;;0.40;0.40;;;;;;;13.40;100.00;96459.84;29395;289;63005;-53
2023/05/21 01:09:21;;;;;;;0.50;0.50;;;;;;;13.41;100.00;96463.38;29395;213;63009;-52
2023/05/21 01:09:53;;;;;;;0.40;0.40;;;;;;;13.40;100.00;96459.84;29395;198;63005;-52
2023/05/21 01:10:26;;;;;;;0.40;0.40;;;;;;;13.39;100.00;96458.22;29395;202;63009;-52
2023/05/21 01:10:58;;;;;;;0.40;0.40;;;;;;;13.39;100.00;96463.69;29395;243;63005;-53
2023/05/21 01:11:59;;;;;;;0.40;0.40;;;;;;;13.41;100.00;96468.81;29395;251;63009;-53
2023/05/21 01:12:33;;;;;;;0.40;0.40;;;;;;;13.40;100.00;96465.28;29394;203;64009;-52
2023/05/21 01:13:04;;;;;;;0.50;0.50;;;;;;;13.43;100.00;96468.50;29395;202;63009;-52
2023/05/21 01:13:40;;;;;;;0.43;0.43;;;;;;;13.42;100.00;96467.69;29395;204;63004;-52
2023/05/21 01:14:14;;;;;;;0.40;0.40;;;;;;;13.40;100.00;96465.28;29394;233;64013;-52
2023/05/21 01:14:45;;;;;;;0.40;0.40;;;;;;;13.40;100.00;96465.28;29395;197;63013;-53
2023/05/21 01:15:17;;;;;;;0.40;0.40;;;;;;;13.40;100.00;96465.28;29395;211;63008;-52
2023/05/21 01:15:50;;;;;;;0.50;0.50;;;;;;;13.40;100.00;96468.00;29395;204;63004;-53
2023/05/21 01:16:22;;;;;;;0.40;0.40;;;;;;;13.40;100.00;96464.50;29395;197;63009;-53
2023/05/21 01:16:53;;;;;;;0.50;0.50;;;;;;;13.40;100.00;96462.56;29394;197;64009;-52
2023/05/21 01:17:27;;;;;;;0.40;0.40;;;;;;;13.41;100.00;96461.44;29395;202;63009;-57
2023/05/21 01:17:59;;;;;;;0.40;0.40;;;;;;;13.40;100.00;96454.38;29394;202;64009;-52
2023/05/21 01:18:33;;;;;;;0.40;0.40;;;;;;;13.39;100.00;96458.22;29395;227;63009;-53
2023/05/21 01:19:09;;;;;;;0.40;0.40;;;;;;;13.39;100.00;96452.78;29395;268;63005;-52
2023/05/21 01:19:43;;;;;;;0.40;0.40;;;;;;;13.38;100.00;96456.63;29395;197;63009;-53
2023/05/21 01:20:19;;;;;;;0.50;0.50;;;;;;;13.40;100.00;96459.03;29395;250;63004;-52
2023/05/21 01:20:51;;;;;;;0.40;0.40;;;;;;;13.40;100.00;96464.50;29394;240;64013;-52
2023/05/21 01:21:24;;;;;;;0.40;0.40;;;;;;;13.40;100.00;96459.84;29394;197;64001;-52
2023/05/21 01:22:03;;;;;;;0.50;0.50;;;;;;;13.41;100.00;96466.88;29394;214;64013;-53
2023/05/21 01:22:35;;;;;;;0.40;0.40;;;;;;;13.40;100.00;96457.13;29395;227;63004;-53
2023/05/21 01:23:07;;;;;;;0.50;0.50;;;;;;;13.40;100.00;96459.03;29394;211;64013;-53
2023/05/21 01:23:39;;;;;;;0.47;0.47;;;;;;;13.39;100.00;96458.22;29395;197;63005;-52
2023/05/21 01:24:10;;;;;;;0.50;0.50;;;;;;;13.39;100.00;96457.44;29395;207;63009;-52
2023/05/21 01:24:46;;;;;;;0.50;0.50;;;;;;;13.40;100.00;96454.38;29394;245;64009;-54
2023/05/21 01:25:18;;;;;;;0.40;0.40;;;;;;;13.41;100.00;96452.47;29395;220;63009;-53
2023/05/21 01:25:49;;;;;;;0.40;0.40;;;;;;;13.38;100.00;96451.19;29395;211;63005;-52
2023/05/21 01:26:20;;;;;;;0.50;0.50;;;;;;;13.37;100.00;96452.31;29395;220;63009;-54
2023/05/21 01:26:51;;;;;;;0.40;0.40;;;;;;;13.38;100.00;96456.63;29395;249;63010;-53
2023/05/21 01:27:24;;;;;;;0.50;0.50;;;;;;;13.37;100.00;96454.22;29394;288;64013;-52
2023/05/21 01:27:56;;;;;;;0.50;0.50;;;;;;;13.36;100.00;96453.44;29395;254;63004;-53
2023/05/21 01:28:33;;;;;;;0.50;0.50;;;;;;;13.35;100.00;96446.38;29395;215;63024;-59
2023/05/21 01:29:05;;;;;;;0.50;0.50;;;;;;;13.36;100.00;96455.34;29394;226;64009;-59
2023/05/21 01:29:37;;;;;;;0.50;0.50;;;;;;;13.35;100.00;96451.81;29395;324;63009;-52
2023/05/21 01:30:13;;;;;;;0.40;0.40;;;;;;;13.36;100.00;96453.44;29395;272;63004;-53
2023/05/21 01:30:45;;;;;;;0.50;0.50;;;;;;;13.36;100.00;96453.44;29395;228;63008;-57
2023/05/21 01:31:26;;;;;;;0.50;0.50;;;;;;;13.36;100.00;96447.97;29395;200;63005;-53
2023/05/21 01:32:14;;;;;;;0.50;0.50;;;;;;;13.35;100.00;96453.75;29395;234;63009;-53
2023/05/21 01:33:20;;;;;;;0.50;0.50;;;;;;;13.31;100.00;96445.41;29394;206;64009;-52
2023/05/21 01:33:58;;;;;;;0.50;0.50;;;;;;;13.29;100.00;96455.81;29395;316;63009;-53
2023/05/21 01:34:44;;;;;;;0.50;0.50;;;;;;;13.26;100.00;96452.94;29395;224;63004;-53
2023/05/21 01:35:40;;;;;;;0.50;0.50;;;;;;;13.22;100.00;96452.78;29395;223;63009;-52
2023/05/21 01:36:28;;;;;;;0.50;0.50;;;;;;;13.17;100.00;96450.19;29395;295;63004;-53
2023/05/21 01:37:26;;;;;;;0.50;0.50;;;;;;;13.16;100.00;96445.91;29395;203;63008;-53
2023/05/21 01:38:22;;;;;;;0.40;0.40;;;;;;;13.17;100.00;96447.47;29394;220;64008;-53
2023/05/21 01:39:02;;;;;;;0.40;0.40;;;;;;;13.16;100.00;96442.37;29395;210;63005;-53
2023/05/21 01:39:39;;;;;;;0.95;0.95;;;;;;;13.17;100.00;96450.19;29395;207;63009;-53
2023/05/21 01:40:27;;;;;;;0.50;0.50;;;;;;;13.16;100.00;96448.63;29395;208;63005;-53
2023/05/21 01:41:09;;;;;;;0.50;0.50;;;;;;;13.15;100.00;96447.00;29395;203;63009;-53
2023/05/21 01:41:45;;;;;;;0.50;0.50;;;;;;;13.15;100.00;96449.72;29417;218;63005;-53
2023/05/21 01:42:18;;;;;;;0.50;0.50;;;;;;;13.17;100.00;96450.19;29395;222;63009;-58
2023/05/21 01:42:50;;;;;;;1.25;1.25;;;;;;;13.19;100.00;96447.97;29395;199;63004;-53
2023/05/21 01:43:22;;;;;;;0.50;0.50;;;;;;;13.19;100.00;96447.97;29394;214;64013;-53
2023/05/21 01:43:56;;;;;;;0.50;0.50;;;;;;;13.21;100.00;96447.63;29395;208;63004;-53
2023/05/21 01:44:28;;;;;;;0.50;0.50;;;;;;;13.20;100.00;96448.75;29395;228;63025;-53
2023/05/21 01:45:04;;;;;;;0.40;0.40;;;;;;;13.16;100.00;96447.81;29395;202;63004;-54
2023/05/21 01:45:41;;;;;;;0.50;0.50;;;;;;;13.13;100.00;96445.72;29395;219;63009;-53
2023/05/21 01:46:17;;;;;;;0.40;0.40;;;;;;;13.09;100.00;96443.63;29395;205;63005;-53
2023/05/21 01:46:50;;;;;;;0.40;0.40;;;;;;;13.08;100.00;96447.47;29395;229;63009;-53
2023/05/21 01:47:23;;;;;;;0.40;0.40;;;;;;;13.08;100.00;96446.66;29395;222;63005;-54
2023/05/21 01:47:55;;;;;;;0.40;0.40;;;;;;;13.10;100.00;96449.87;29395;233;63009;-54
2023/05/21 01:48:29;;;;;;;0.40;0.40;;;;;;;13.12;100.00;96447.63;29394;274;64009;-53
2023/05/21 01:49:01;;;;;;;0.50;0.50;;;;;;;13.13;100.00;96449.22;29395;203;63015;-53
2023/05/21 01:49:34;;;;;;;0.50;0.50;;;;;;;13.15;100.00;96447.00;29395;202;63004;-54
2023/05/21 01:50:08;;;;;;;0.40;0.40;;;;;;;13.16;100.00;96448.63;29395;226;63009;-59
2023/05/21 01:50:44;;;;;;;0.50;0.50;;;;;;;13.18;100.00;96451.00;29395;211;63010;-56
2023/05/21 01:51:16;;;;;;;0.45;0.45;;;;;;;13.20;100.00;96451.47;29395;204;63009;-55
2023/05/21 01:51:48;;;;;;;0.45;0.45;;;;;;;13.20;100.00;96446.03;29395;215;63004;-52
2023/05/21 01:52:19;;;;;;;0.50;0.50;;;;;;;13.21;100.00;96445.72;29395;196;63008;-52
2023/05/21 01:52:53;;;;;;;0.50;0.50;;;;;;;13.22;100.00;96452.78;29394;202;64009;-54
2023/05/21 01:53:25;;;;;;;0.45;0.45;;;;;;;13.22;100.00;96441.06;29394;272;64004;-52
2023/05/21 01:53:56;;;;;;;0.50;0.50;;;;;;;13.21;100.00;96440.28;29395;292;63005;-52
2023/05/21 01:54:28;;;;;;;0.50;0.50;;;;;;;13.21;100.00;96444.91;29395;219;63009;-52
2023/05/21 01:54:59;;;;;;;0.50;0.50;;;;;;;13.22;100.00;96443.78;29395;205;63005;-52
2023/05/21 01:55:31;;;;;;;0.50;0.50;;;;;;;13.20;100.00;96449.56;29394;246;64013;-52
2023/05/21 01:56:03;;;;;;;0.40;0.40;;;;;;;13.20;100.00;96443.31;29394;222;64009;-52
2023/05/21 01:56:35;;;;;;;0.50;0.50;;;;;;;13.21;100.00;96442.19;29395;229;63014;-52
2023/05/21 01:57:07;;;;;;;0.40;0.40;;;;;;;13.20;100.00;96444.13;29395;202;63004;-52
2023/05/21 01:57:38;;;;;;;0.50;0.50;;;;;;;13.21;100.00;96440.28;29395;276;63025;-52
2023/05/21 01:58:14;;;;;;;0.50;0.50;;;;;;;13.22;100.00;96446.53;29394;198;64009;-52
2023/05/21 01:58:48;;;;;;;0.50;0.50;;;;;;;13.21;100.00;96434.03;29395;223;63004;-52
2023/05/21 01:59:20;;;;;;;0.45;0.45;;;;;;;13.21;100.00;96440.28;29395;237;63004;-53
2023/05/21 01:59:52;;;;;;;0.50;0.50;;;;;;;13.19;100.00;96442.50;29395;297;63008;-52
2023/05/21 02:00:28;;;;;;;0.43;0.43;;;;;;;13.17;100.00;96449.44;29395;258;63009;-53
2023/05/21 02:00:59;;;;;;;0.40;0.40;;;;;;;13.14;100.00;96441.87;29394;272;64014;-53
2023/05/21 02:01:30;;;;;;;0.50;0.50;;;;;;;13.12;100.00;96441.37;29395;223;63005;-59
2023/05/21 02:02:02;;;;;;;0.50;0.50;;;;;;;13.11;100.00;96446.03;29395;249;63009;-60
2023/05/21 02:02:33;;;;;;;0.50;0.50;;;;;;;13.10;100.00;96447.16;29395;208;63005;-53
2023/05/21 02:03:05;;;;;;;0.50;0.50;;;;;;;13.11;100.00;96446.03;29395;206;63009;-54
2023/05/21 02:03:37;;;;;;;0.50;0.50;;;;;;;13.09;100.00;96442.81;29395;216;63005;-53
2023/05/21 02:04:08;;;;;;;0.50;0.50;;;;;;;13.09;100.00;96442.81;29395;202;63009;-53
2023/05/21 02:04:40;;;;;;;0.50;0.50;;;;;;;13.08;100.00;96444.75;29395;207;63004;-53
2023/05/21 02:05:11;;;;;;;0.40;0.40;;;;;;;13.09;100.00;96442.81;29394;229;64013;-54
2023/05/21 02:05:43;;;;;;;0.50;0.50;;;;;;;13.09;100.00;96443.63;29395;196;63004;-59
2023/05/21 02:06:14;;;;;;;0.50;0.50;;;;;;;13.09;100.00;96442.81;29395;236;63009;-53
2023/05/21 02:06:46;;;;;;;0.40;0.40;;;;;;;13.09;100.00;96449.06;29395;238;63004;-60
2023/05/21 02:07:17;;;;;;;0.50;0.50;;;;;;;13.10;100.00;96438.97;29395;234;63008;-60
2023/05/21 02:07:51;;;;;;;0.40;0.40;;;;;;;13.08;100.00;96435.75;29395;240;63004;-58
2023/05/21 02:08:26;;;;;;;0.50;0.50;;;;;;;13.08;100.00;96435.75;29395;253;63009;-53
2023/05/21 02:08:57;;;;;;;0.40;0.40;;;;;;;13.07;100.00;96434.16;29395;209;63008;-53
2023/05/21 02:09:28;;;;;;;0.50;0.50;;;;;;;13.07;100.00;96439.59;29395;209;63009;-53
2023/05/21 02:09:59;;;;;;;0.40;0.40;;;;;;;13.06;100.00;96438.00;29395;208;63005;-53
2023/05/21 02:10:31;;;;;;;0.50;0.50;;;;;;;13.06;100.00;96438.81;29394;197;64013;-53
2023/05/21 02:11:04;;;;;;;0.50;0.50;;;;;;;13.06;100.00;96438.00;29395;206;63018;-53
2023/05/21 02:11:35;;;;;;;0.50;0.50;;;;;;;13.08;100.00;96446.66;29395;197;63009;-53
2023/05/21 02:12:07;;;;;;;0.50;0.50;;;;;;;13.07;100.00;96439.59;29395;240;63004;-52
2023/05/21 02:12:39;;;;;;;0.50;0.50;;;;;;;13.08;100.00;96446.66;29394;268;64013;-57
2023/05/21 02:13:11;;;;;;;0.50;0.50;;;;;;;13.06;100.00;96438.00;29395;222;63014;-57
2023/05/21 02:13:44;;;;;;;0.50;0.50;;;;;;;13.06;100.00;96438.81;29395;203;63009;-52
2023/05/21 02:14:16;;;;;;;0.50;0.50;;;;;;;13.06;100.00;96443.44;29395;237;63004;-52
2023/05/21 02:14:49;;;;;;;0.50;0.50;;;;;;;13.05;100.00;96439.13;29395;257;63008;-52
2023/05/21 02:15:21;;;;;;;0.40;0.40;;;;;;;13.05;100.00;96436.41;29395;199;63004;-52
2023/05/21 02:15:53;;;;;;;0.50;0.50;;;;;;;13.05;100.00;96441.84;29395;209;63009;-52
2023/05/21 02:16:25;;;;;;;0.50;0.50;;;;;;;13.05;100.00;96447.28;29395;290;63005;-52
2023/05/21 02:16:56;;;;;;;0.40;0.40;;;;;;;13.06;100.00;96438.00;29395;204;63017;-52
2023/05/21 02:17:32;;;;;;;0.50;0.50;;;;;;;13.05;100.00;96437.22;29394;211;64009;-52
2023/05/21 02:18:04;;;;;;;0.50;0.50;;;;;;;13.04;100.00;96440.25;29395;206;63009;-54
2023/05/21 02:18:35;;;;;;;0.50;0.50;;;;;;;13.03;100.00;96439.44;29395;212;63007;-52
2023/05/21 02:19:09;;;;;;;0.50;0.50;;;;;;;13.03;100.00;96442.16;29395;319;63009;-52
2023/05/21 02:19:40;;;;;;;0.45;0.45;;;;;;;13.03;100.00;96441.37;29395;229;63004;-51
2023/05/21 02:20:13;;;;;;;0.40;0.40;;;;;;;13.03;100.00;96444.09;29395;198;63009;-52
2023/05/21 02:20:45;;;;;;;0.43;0.43;;;;;;;13.03;100.00;96444.09;29395;241;63004;-53
2023/05/21 02:21:17;;;;;;;0.50;0.50;;;;;;;13.02;100.00;96442.50;29395;235;63009;-53
2023/05/21 02:21:48;;;;;;;0.50;0.50;;;;;;;13.02;100.00;96443.28;29395;261;63004;-53
2023/05/21 02:22:19;;;;;;;0.50;0.50;;;;;;;13.01;100.00;96440.87;29395;226;63026;-53
2023/05/21 02:22:50;;;;;;;0.45;0.45;;;;;;;13.00;100.00;96444.72;29394;218;63995;-52
2023/05/21 02:23:22;;;;;;;0.50;0.50;;;;;;;12.96;100.00;96438.31;29395;222;63009;-53
2023/05/21 02:23:53;;;;;;;0.40;0.40;;;;;;;12.94;100.00;96446.00;29395;222;63005;-53
2023/05/21 02:24:24;;;;;;;0.40;0.40;;;;;;;12.95;100.00;96442.16;29395;199;63009;-52
2023/05/21 02:24:55;;;;;;;0.40;0.40;;;;;;;12.93;100.00;96444.38;29395;259;63005;-53
2023/05/21 02:25:26;;;;;;;0.50;0.50;;;;;;;12.92;100.00;96446.31;29395;243;63009;-53
2023/05/21 02:25:58;;;;;;;0.60;0.60;;;;;;;12.91;100.00;96446.63;29395;225;63005;-53
2023/05/21 02:26:30;;;;;;;0.40;0.40;;;;;;;12.91;100.00;96444.72;29395;229;63009;-53
2023/05/21 02:27:01;;;;;;;0.40;0.40;;;;;;;12.92;100.00;96442.78;29395;247;63004;-54
2023/05/21 02:27:36;;;;;;;0.50;0.50;;;;;;;12.92;100.00;96443.59;29395;268;63009;-52
2023/05/21 02:28:08;;;;;;;0.40;0.40;;;;;;;12.91;100.00;96436.53;29394;211;64009;-53
2023/05/21 02:28:39;;;;;;;0.40;0.40;;;;;;;12.92;100.00;96431.91;29395;206;63009;-53
2023/05/21 02:29:11;;;;;;;0.45;0.45;;;;;;;12.91;100.00;96436.53;29395;198;63004;-53
2023/05/21 02:29:42;;;;;;;0.40;0.40;;;;;;;12.92;100.00;96434.63;29395;288;63008;-52
2023/05/21 02:30:15;;;;;;;17.15;16.50;;;;;;;12.92;100.00;96437.34;29385;211;65004;-53
2023/05/21 02:30:46;;;;;;;0.50;0.50;;;;;;;12.94;100.00;96440.53;29395;229;63009;-53
2023/05/21 02:31:21;;;;;;;0.50;0.50;;;;;;;12.93;100.00;96438.94;29395;209;63005;-54
2023/05/21 02:31:52;;;;;;;0.50;0.50;;;;;;;12.94;100.00;96435.09;29395;316;63009;-53
2023/05/21 02:32:23;;;;;;;0.50;0.50;;;;;;;12.95;100.00;96433.97;29395;225;63005;-53
2023/05/21 02:32:57;;;;;;;0.47;0.47;;;;;;;12.97;100.00;96429.03;29395;225;63009;-52
2023/05/21 02:33:28;;;;;;;0.40;0.40;;;;;;;12.98;100.00;96441.50;29394;212;64001;-53
2023/05/21 02:34:00;;;;;;;0.40;0.40;;;;;;;12.98;100.00;96433.34;29395;206;63009;-53
2023/05/21 02:34:31;;;;;;;0.40;0.40;;;;;;;12.98;100.00;96427.91;29395;202;63004;-52
2023/05/21 02:35:04;;;;;;;0.40;0.40;;;;;;;12.98;100.00;96433.34;29395;230;63009;-53
2023/05/21 02:35:35;;;;;;;0.40;0.40;;;;;;;12.99;100.00;96434.94;29395;210;63009;-53
2023/05/21 02:36:11;;;;;;;0.43;0.43;;;;;;;12.98;100.00;96431.44;29395;254;63014;-53
2023/05/21 02:36:43;;;;;;;0.40;0.40;;;;;;;13.00;100.00;96439.28;29395;220;63017;-54